createdAt,value
2023-03-24T00:00:51.704Z,12.28
2023-03-24T00:01:51.682Z,12.27
2023-03-24T00:02:51.898Z,12.24
2023-03-24T00:03:51.712Z,12.22
2023-03-24T00:04:51.648Z,12.21
2023-03-24T00:05:51.636Z,12.20
2023-03-24T00:06:51.628Z,12.17
2023-03-24T00:08:51.602Z,12.14
2023-03-24T00:09:51.592Z,12.16
2023-03-24T00:10:51.576Z,12.16
2023-03-24T00:11:51.568Z,12.12
2023-03-24T00:12:51.565Z,12.12
2023-03-24T00:13:51.545Z,12.07
2023-03-24T00:14:51.531Z,12.04
2023-03-24T00:15:51.558Z,12.03
2023-03-24T00:16:51.508Z,11.99
2023-03-24T00:17:51.501Z,11.99
2023-03-24T00:18:51.517Z,11.99
2023-03-24T00:19:51.473Z,11.99
2023-03-24T00:20:51.464Z,11.98
2023-03-24T00:21:51.456Z,11.98
2023-03-24T00:22:51.439Z,11.96
2023-03-24T00:23:51.431Z,11.95
2023-03-24T00:24:51.425Z,11.94
2023-03-24T00:25:51.408Z,11.94
2023-03-24T00:26:51.399Z,11.94
2023-03-24T00:27:51.395Z,11.96
2023-03-24T00:28:51.376Z,11.96
2023-03-24T00:29:51.379Z,11.95
2023-03-24T00:30:51.349Z,11.95
2023-03-24T00:31:51.345Z,11.95
2023-03-24T00:32:51.351Z,11.96
2023-03-24T00:33:51.467Z,11.95
2023-03-24T00:34:51.327Z,11.95
2023-03-24T00:35:51.307Z,11.96
2023-03-24T00:36:51.300Z,11.98
2023-03-24T00:37:51.273Z,11.99
2023-03-24T00:38:51.265Z,12.02
2023-03-24T00:39:51.250Z,12.03
2023-03-24T00:40:51.237Z,12.03
2023-03-24T00:41:51.249Z,11.99
2023-03-24T00:42:51.226Z,12.02
2023-03-24T00:43:51.205Z,11.99
2023-03-24T00:44:51.197Z,12.02
2023-03-24T00:45:51.184Z,12.02
2023-03-24T00:46:51.209Z,11.99
2023-03-24T00:47:51.190Z,11.96
2023-03-24T00:48:51.157Z,11.94
2023-03-24T00:49:51.141Z,11.95
2023-03-24T00:50:51.149Z,11.94
2023-03-24T00:51:51.115Z,11.94
2023-03-24T00:52:51.113Z,11.94
2023-03-24T00:53:51.092Z,11.94
2023-03-24T00:54:51.088Z,11.94
2023-03-24T00:55:51.079Z,11.94
2023-03-24T00:56:51.067Z,11.95
2023-03-24T00:57:51.381Z,11.95
2023-03-24T00:58:51.035Z,11.96
2023-03-24T00:59:51.025Z,11.96
2023-03-24T01:00:51.039Z,11.96
2023-03-24T01:01:51.030Z,11.96
2023-03-24T01:02:51.043Z,11.95
2023-03-24T01:03:50.975Z,11.96
2023-03-24T01:04:50.962Z,11.96
2023-03-24T01:05:50.961Z,11.98
2023-03-24T01:06:50.962Z,11.98
2023-03-24T01:07:50.930Z,11.96
2023-03-24T01:08:50.916Z,11.98
2023-03-24T01:09:50.904Z,11.98
2023-03-24T01:10:50.898Z,11.99
2023-03-24T01:11:50.878Z,11.99
2023-03-24T01:12:50.869Z,11.99
2023-03-24T01:13:50.856Z,12.02
2023-03-24T01:14:50.849Z,12.03
2023-03-24T01:15:50.838Z,12.02
2023-03-24T01:16:50.827Z,11.99
2023-03-24T01:17:50.844Z,11.99
2023-03-24T01:18:50.798Z,12.02
2023-03-24T01:19:50.785Z,12.02
2023-03-24T01:20:50.773Z,12.02
2023-03-24T01:21:50.764Z,12.03
2023-03-24T01:22:50.790Z,12.03
2023-03-24T01:23:50.746Z,12.03
2023-03-24T01:24:50.740Z,12.04
2023-03-24T01:25:50.719Z,12.04
2023-03-24T01:26:50.721Z,12.04
2023-03-24T01:27:50.711Z,12.06
2023-03-24T01:28:50.684Z,12.06
2023-03-24T01:29:50.681Z,12.06
2023-03-24T01:30:50.666Z,12.09
2023-03-24T01:31:50.679Z,12.10
2023-03-24T01:32:50.693Z,12.12
2023-03-24T01:33:50.626Z,12.14
2023-03-24T01:34:50.622Z,12.14
2023-03-24T01:35:50.630Z,12.16
2023-03-24T01:36:50.593Z,12.20
2023-03-24T01:37:50.588Z,12.16
2023-03-24T01:38:50.598Z,12.14
2023-03-24T01:39:50.563Z,12.13
2023-03-24T01:40:50.571Z,12.12
2023-03-24T01:41:50.550Z,12.13
2023-03-24T01:42:50.536Z,12.16
2023-03-24T01:43:50.520Z,12.16
2023-03-24T01:44:50.504Z,12.16
2023-03-24T01:45:50.507Z,12.17
2023-03-24T01:46:50.514Z,12.17
2023-03-24T01:47:50.516Z,12.16
2023-03-24T01:48:50.461Z,12.20
2023-03-24T01:49:50.456Z,12.16
2023-03-24T01:50:50.446Z,12.16
2023-03-24T01:51:50.434Z,12.17
2023-03-24T01:52:50.414Z,12.16
2023-03-24T01:53:50.406Z,12.12
2023-03-24T01:54:50.429Z,12.12
2023-03-24T01:55:50.381Z,12.10
2023-03-24T01:56:50.409Z,12.09
2023-03-24T01:57:50.362Z,12.07
2023-03-24T01:58:50.350Z,12.07
2023-03-24T01:59:50.340Z,12.06
2023-03-24T02:00:50.395Z,12.04
2023-03-24T02:01:50.323Z,12.03
2023-03-24T02:02:50.340Z,12.04
2023-03-24T02:03:50.334Z,12.03
2023-03-24T02:04:50.290Z,12.03
2023-03-24T02:05:50.272Z,12.03
2023-03-24T02:06:50.258Z,12.04
2023-03-24T02:07:50.279Z,12.02
2023-03-24T02:08:50.258Z,11.99
2023-03-24T02:09:50.270Z,11.99
2023-03-24T02:10:50.237Z,11.98
2023-03-24T02:11:50.202Z,11.99
2023-03-24T02:12:50.200Z,11.99
2023-03-24T02:13:50.183Z,12.02
2023-03-24T02:14:50.176Z,11.99
2023-03-24T02:15:50.188Z,11.99
2023-03-24T02:16:50.149Z,12.02
2023-03-24T02:17:50.199Z,12.02
2023-03-24T02:18:50.123Z,12.04
2023-03-24T02:19:50.114Z,12.04
2023-03-24T02:20:50.098Z,12.03
2023-03-24T02:21:50.088Z,12.04
2023-03-24T02:22:50.080Z,12.06
2023-03-24T02:23:50.069Z,12.04
2023-03-24T02:24:50.060Z,12.04
2023-03-24T02:25:50.046Z,12.03
2023-03-24T02:26:50.052Z,12.06
2023-03-24T02:27:50.022Z,12.06
2023-03-24T02:28:50.020Z,12.06
2023-03-24T02:29:49.999Z,12.07
2023-03-24T02:30:49.991Z,12.10
2023-03-24T02:31:50.054Z,12.09
2023-03-24T02:32:50.047Z,12.07
2023-03-24T02:33:49.952Z,12.04
2023-03-24T02:34:49.953Z,12.04
2023-03-24T02:35:49.957Z,12.06
2023-03-24T02:36:49.916Z,12.06
2023-03-24T02:37:49.916Z,12.07
2023-03-24T02:38:49.898Z,12.09
2023-03-24T02:39:49.882Z,12.10
2023-03-24T02:40:49.878Z,12.12
2023-03-24T02:41:49.859Z,12.13
2023-03-24T02:42:49.870Z,12.13
2023-03-24T02:43:49.848Z,12.13
2023-03-24T02:44:49.823Z,12.12
2023-03-24T02:45:49.852Z,12.13
2023-03-24T02:46:49.800Z,12.13
2023-03-24T02:47:49.837Z,12.14
2023-03-24T02:48:49.778Z,12.14
2023-03-24T02:49:49.770Z,12.16
2023-03-24T02:50:49.753Z,12.16
2023-03-24T02:51:49.745Z,12.16
2023-03-24T02:52:49.727Z,12.14
2023-03-24T02:53:49.729Z,12.16
2023-03-24T02:54:49.710Z,12.17
2023-03-24T02:55:49.693Z,12.17
2023-03-24T02:56:49.759Z,12.20
2023-03-24T02:57:49.671Z,12.21
2023-03-24T02:58:49.685Z,12.25
2023-03-24T02:59:49.658Z,12.27
2023-03-24T03:00:49.641Z,12.27
2023-03-24T03:01:49.797Z,12.27
2023-03-24T03:02:49.637Z,12.27
2023-03-24T03:03:49.632Z,12.27
2023-03-24T03:04:49.593Z,12.25
2023-03-24T03:05:49.579Z,12.27
2023-03-24T03:06:49.566Z,12.22
2023-03-24T03:07:49.562Z,12.22
2023-03-24T03:08:49.544Z,12.22
2023-03-24T03:09:49.535Z,12.22
2023-03-24T03:10:49.520Z,12.20
2023-03-24T03:11:49.509Z,12.21
2023-03-24T03:12:50.647Z,12.22
2023-03-24T03:13:49.488Z,12.25
2023-03-24T03:14:49.502Z,12.24
2023-03-24T03:15:49.502Z,12.25
2023-03-24T03:16:49.456Z,12.24
2023-03-24T03:17:49.491Z,12.25
2023-03-24T03:18:49.430Z,12.24
2023-03-24T03:19:49.425Z,12.24
2023-03-24T03:20:49.407Z,12.25
2023-03-24T03:21:49.402Z,12.24
2023-03-24T03:22:49.388Z,12.22
2023-03-24T03:23:49.378Z,12.21
2023-03-24T03:24:49.367Z,12.20
2023-03-24T03:25:49.361Z,12.21
2023-03-24T03:26:49.342Z,12.21
2023-03-24T03:27:49.334Z,12.20
2023-03-24T03:28:49.319Z,12.20
2023-03-24T03:29:49.305Z,12.17
2023-03-24T03:30:49.348Z,12.20
2023-03-24T03:31:49.283Z,12.21
2023-03-24T03:32:49.331Z,12.20
2023-03-24T03:33:49.273Z,12.20
2023-03-24T03:34:49.255Z,12.21
2023-03-24T03:35:49.272Z,12.22
2023-03-24T03:36:49.236Z,12.22
2023-03-24T03:37:49.220Z,12.25
2023-03-24T03:38:49.212Z,12.25
2023-03-24T03:39:49.194Z,12.24
2023-03-24T03:40:49.190Z,12.22
2023-03-24T03:41:49.178Z,12.20
2023-03-24T03:42:49.161Z,12.17
2023-03-24T03:43:49.150Z,12.20
2023-03-24T03:44:49.143Z,12.20
2023-03-24T03:45:49.189Z,12.21
2023-03-24T03:46:49.143Z,12.22
2023-03-24T03:47:49.148Z,12.21
2023-03-24T03:48:49.110Z,12.21
2023-03-24T03:49:49.081Z,12.21
2023-03-24T03:50:51.878Z,12.21
2023-03-24T03:51:49.060Z,12.20
2023-03-24T03:52:49.044Z,12.17
2023-03-24T03:53:49.063Z,12.20
2023-03-24T03:54:49.053Z,12.20
2023-03-24T03:55:49.010Z,12.17
2023-03-24T03:56:49.026Z,12.16
2023-03-24T03:57:48.987Z,12.16
2023-03-24T03:58:48.980Z,12.13
2023-03-24T03:59:48.964Z,12.13
2023-03-24T04:00:48.953Z,12.13
2023-03-24T04:01:48.994Z,12.16
2023-03-24T04:02:49.046Z,12.16
2023-03-24T04:03:48.939Z,12.16
2023-03-24T04:04:59.553Z,12.16
2023-03-24T04:05:48.903Z,12.14
2023-03-24T04:06:48.883Z,12.13
2023-03-24T04:07:48.884Z,12.13
2023-03-24T04:08:48.865Z,12.13
2023-03-24T04:09:48.852Z,12.12
2023-03-24T04:10:48.838Z,12.12
2023-03-24T04:11:48.834Z,12.13
2023-03-24T04:12:48.819Z,12.14
2023-03-24T04:13:48.804Z,12.13
2023-03-24T04:14:48.802Z,12.14
2023-03-24T04:15:48.912Z,12.14
2023-03-24T04:16:48.813Z,12.16
2023-03-24T04:17:48.806Z,12.17
2023-03-24T04:18:48.770Z,12.17
2023-03-24T04:19:48.746Z,12.17
2023-03-24T04:20:48.726Z,12.14
2023-03-24T04:21:48.771Z,12.16
2023-03-24T04:22:48.705Z,12.16
2023-03-24T04:23:48.691Z,12.14
2023-03-24T04:24:48.680Z,12.14
2023-03-24T04:25:48.674Z,12.16
2023-03-24T04:26:48.657Z,12.16
2023-03-24T04:27:48.655Z,12.17
2023-03-24T04:28:48.634Z,12.20
2023-03-24T04:29:48.628Z,12.20
2023-03-24T04:30:48.619Z,12.21
2023-03-24T04:31:48.646Z,12.21
2023-03-24T04:32:48.606Z,12.22
2023-03-24T04:33:48.577Z,12.21
2023-03-24T04:34:48.597Z,12.22
2023-03-24T04:35:48.574Z,12.24
2023-03-24T04:36:48.542Z,12.25
2023-03-24T04:37:48.531Z,12.25
2023-03-24T04:38:48.520Z,12.25
2023-03-24T04:39:48.510Z,12.24
2023-03-24T04:40:48.502Z,12.24
2023-03-24T04:41:48.484Z,12.27
2023-03-24T04:42:48.491Z,12.27
2023-03-24T04:43:48.461Z,12.28
2023-03-24T04:44:48.449Z,12.28
2023-03-24T04:45:48.524Z,12.31
2023-03-24T04:46:48.425Z,12.31
2023-03-24T04:47:48.460Z,12.31
2023-03-24T04:48:50.408Z,12.34
2023-03-24T04:49:48.397Z,12.35
2023-03-24T04:50:48.432Z,12.37
2023-03-24T04:51:48.370Z,12.40
2023-03-24T04:52:48.364Z,12.39
2023-03-24T04:53:48.350Z,12.43
2023-03-24T04:54:48.345Z,12.43
2023-03-24T04:55:50.334Z,12.46
2023-03-24T04:56:48.384Z,12.46
2023-03-24T04:57:50.300Z,12.46
2023-03-24T04:58:48.289Z,12.49
2023-03-24T04:59:48.279Z,12.47
2023-03-24T05:00:48.305Z,12.47
2023-03-24T05:01:48.257Z,12.49
2023-03-24T05:02:48.303Z,12.50
2023-03-24T05:03:48.288Z,12.53
2023-03-24T05:04:50.224Z,12.54
2023-03-24T05:05:48.241Z,12.57
2023-03-24T05:06:48.234Z,12.58
2023-03-24T05:07:48.200Z,12.61
2023-03-24T05:08:48.177Z,12.61
2023-03-24T05:09:48.171Z,12.63
2023-03-24T05:10:48.156Z,12.61
2023-03-24T05:11:48.140Z,12.65
2023-03-24T05:12:48.130Z,12.65
2023-03-24T05:13:48.117Z,12.68
2023-03-24T05:14:48.108Z,12.69
2023-03-24T05:15:48.110Z,12.71
2023-03-24T05:16:50.140Z,12.71
2023-03-24T05:17:48.118Z,12.72
2023-03-24T05:18:48.069Z,12.72
2023-03-24T05:19:48.051Z,12.72
2023-03-24T05:20:48.044Z,12.72
2023-03-24T05:21:48.032Z,12.73
2023-03-24T05:22:48.056Z,12.76
2023-03-24T05:23:48.013Z,12.77
2023-03-24T05:24:47.996Z,12.77
2023-03-24T05:25:47.987Z,12.77
2023-03-24T05:26:47.974Z,12.77
2023-03-24T05:27:47.963Z,12.79
2023-03-24T05:28:47.963Z,12.80
2023-03-24T05:29:47.945Z,12.80
2023-03-24T05:30:47.968Z,12.83
2023-03-24T05:31:47.925Z,12.84
2023-03-24T05:32:47.949Z,12.84
2023-03-24T05:33:47.899Z,12.86
2023-03-24T05:34:47.896Z,12.86
2023-03-24T05:35:48.171Z,12.86
2023-03-24T05:36:47.864Z,12.87
2023-03-24T05:37:47.850Z,12.88
2023-03-24T05:38:47.860Z,12.90
2023-03-24T05:39:47.828Z,12.90
2023-03-24T05:40:47.812Z,12.90
2023-03-24T05:41:47.809Z,12.95
2023-03-24T05:42:47.790Z,12.95
2023-03-24T05:43:47.779Z,12.96
2023-03-24T05:44:47.769Z,12.98
2023-03-24T05:45:48.157Z,12.99
2023-03-24T05:46:47.785Z,12.98
2023-03-24T05:47:47.791Z,12.98
2023-03-24T05:48:47.731Z,13.01
2023-03-24T05:49:47.718Z,13.02
2023-03-24T05:50:47.717Z,13.02
2023-03-24T05:51:47.692Z,13.02
2023-03-24T05:52:49.678Z,13.02
2023-03-24T05:53:47.667Z,13.04
2023-03-24T05:54:49.678Z,13.04
2023-03-24T05:55:47.652Z,13.06
2023-03-24T05:56:47.673Z,13.05
2023-03-24T05:57:49.644Z,13.06
2023-03-24T05:58:47.612Z,13.06
2023-03-24T05:59:47.661Z,13.06
2023-03-24T06:00:47.641Z,13.08
2023-03-24T06:01:47.577Z,13.08
2023-03-24T06:02:47.626Z,13.09
2023-03-24T06:03:49.769Z,13.09
2023-03-24T06:04:49.590Z,13.11
2023-03-24T06:05:47.830Z,13.13
2023-03-24T06:06:47.538Z,13.14
2023-03-24T06:07:49.514Z,13.16
2023-03-24T06:08:47.560Z,13.17
2023-03-24T06:09:47.606Z,13.16
2023-03-24T06:10:49.527Z,13.17
2023-03-24T06:11:47.469Z,13.17
2023-03-24T06:12:47.460Z,13.17
2023-03-24T06:13:47.454Z,13.20
2023-03-24T06:14:47.444Z,13.20
2023-03-24T06:15:47.708Z,13.21
2023-03-24T06:16:47.522Z,13.21
2023-03-24T06:17:47.444Z,13.23
2023-03-24T06:18:47.396Z,13.21
2023-03-24T06:19:47.380Z,13.23
2023-03-24T06:20:47.369Z,13.23
2023-03-24T06:21:47.359Z,13.21
2023-03-24T06:22:47.361Z,13.24
2023-03-24T06:23:47.338Z,13.26
2023-03-24T06:24:47.324Z,13.26
2023-03-24T06:25:47.450Z,13.27
2023-03-24T06:26:47.407Z,13.30
2023-03-24T06:27:47.311Z,13.30
2023-03-24T06:28:47.293Z,13.32
2023-03-24T06:29:47.273Z,13.35
2023-03-24T06:30:47.319Z,13.39
2023-03-24T06:31:47.247Z,13.41
2023-03-24T06:32:47.313Z,13.41
2023-03-24T06:33:47.227Z,13.42
2023-03-24T06:34:47.215Z,13.45
2023-03-24T06:35:47.466Z,13.44
2023-03-24T06:36:47.199Z,13.44
2023-03-24T06:37:47.184Z,13.46
2023-03-24T06:38:47.170Z,13.44
2023-03-24T06:39:47.162Z,13.45
2023-03-24T06:40:47.150Z,13.45
2023-03-24T06:41:47.157Z,13.46
2023-03-24T06:42:47.276Z,13.46
2023-03-24T06:43:47.118Z,13.48
2023-03-24T06:44:47.103Z,13.52
2023-03-24T06:45:47.292Z,13.54
2023-03-24T06:46:47.155Z,13.56
2023-03-24T06:47:47.101Z,13.57
2023-03-24T06:48:47.080Z,13.56
2023-03-24T06:49:47.052Z,13.56
2023-03-24T06:50:47.039Z,13.56
2023-03-24T06:51:47.032Z,13.54
2023-03-24T06:52:47.025Z,13.57
2023-03-24T06:53:47.009Z,13.59
2023-03-24T06:54:46.993Z,13.60
2023-03-24T06:55:47.074Z,13.62
2023-03-24T06:56:46.990Z,13.62
2023-03-24T06:57:46.960Z,13.66
2023-03-24T06:58:46.974Z,13.71
2023-03-24T06:59:46.944Z,13.71
2023-03-24T07:00:47.158Z,13.75
2023-03-24T07:01:47.071Z,13.78
2023-03-24T07:02:46.977Z,13.79
2023-03-24T07:03:47.000Z,13.84
2023-03-24T07:04:46.882Z,13.84
2023-03-24T07:05:46.870Z,13.87
2023-03-24T07:07:03.532Z,13.87
2023-03-24T07:08:46.842Z,13.89
2023-03-24T07:09:46.829Z,13.89
2023-03-24T07:10:47.177Z,13.93
2023-03-24T07:11:46.808Z,14.00
2023-03-24T07:12:46.800Z,14.04
2023-03-24T07:13:46.783Z,14.12
2023-03-24T07:14:46.797Z,14.19
2023-03-24T07:15:46.759Z,14.27
2023-03-24T07:16:46.820Z,14.33
2023-03-24T07:17:46.751Z,14.36
2023-03-24T07:18:46.735Z,14.31
2023-03-24T07:19:46.738Z,14.28
2023-03-24T07:20:46.889Z,14.33
2023-03-24T07:21:46.698Z,14.36
2023-03-24T07:22:46.686Z,14.31
2023-03-24T07:23:46.674Z,14.27
2023-03-24T07:24:46.668Z,14.26
2023-03-24T07:25:46.980Z,14.27
2023-03-24T07:26:46.646Z,14.33
2023-03-24T07:27:46.628Z,14.38
2023-03-24T07:28:46.719Z,14.38
2023-03-24T07:29:46.604Z,14.48
2023-03-24T07:30:46.674Z,14.53
2023-03-24T07:31:46.641Z,14.58
2023-03-24T07:32:46.580Z,14.70
2023-03-24T07:33:46.569Z,14.84
2023-03-24T07:34:46.550Z,14.89
2023-03-24T07:35:46.896Z,14.98
2023-03-24T07:36:46.524Z,15.06
2023-03-24T07:37:46.520Z,15.24
2023-03-24T07:38:46.506Z,15.39
2023-03-24T07:39:46.490Z,15.48
2023-03-24T07:40:46.890Z,15.50
2023-03-24T07:41:46.469Z,15.51
2023-03-24T07:42:46.460Z,15.51
2023-03-24T07:43:46.451Z,15.46
2023-03-24T07:44:46.445Z,15.39
2023-03-24T07:45:46.795Z,15.34
2023-03-24T07:46:46.471Z,15.28
2023-03-24T07:47:46.462Z,15.25
2023-03-24T07:48:46.395Z,15.28
2023-03-24T07:49:46.387Z,15.28
2023-03-24T07:50:46.574Z,15.25
2023-03-24T07:51:46.367Z,15.24
2023-03-24T07:52:46.343Z,15.22
2023-03-24T07:53:46.330Z,15.24
2023-03-24T07:54:46.320Z,15.24
2023-03-24T07:55:46.355Z,15.19
2023-03-24T07:56:46.324Z,15.16
2023-03-24T07:57:46.298Z,15.14
2023-03-24T07:58:46.369Z,15.16
2023-03-24T07:59:46.269Z,15.19
2023-03-24T08:00:46.296Z,15.22
2023-03-24T08:01:48.500Z,15.26
2023-03-24T08:02:46.428Z,15.22
2023-03-24T08:03:46.328Z,15.13
2023-03-24T08:04:46.403Z,14.94
2023-03-24T08:05:46.638Z,14.76
2023-03-24T08:06:46.184Z,14.67
2023-03-24T08:07:46.169Z,14.61
2023-03-24T08:08:46.162Z,14.64
2023-03-24T08:09:46.144Z,14.71
2023-03-24T08:10:46.349Z,14.74
2023-03-24T08:11:46.125Z,14.78
2023-03-24T08:12:46.111Z,14.82
2023-03-24T08:13:46.104Z,14.81
2023-03-24T08:14:46.089Z,14.84
2023-03-24T08:15:46.376Z,14.84
2023-03-24T08:16:46.098Z,14.84
2023-03-24T08:17:46.067Z,14.82
2023-03-24T08:18:46.069Z,14.81
2023-03-24T08:19:58.269Z,14.77
2023-03-24T08:20:46.018Z,14.76
2023-03-24T08:21:46.010Z,14.77
2023-03-24T08:22:45.997Z,14.77
2023-03-24T08:23:45.984Z,14.74
2023-03-24T08:24:45.978Z,14.71
2023-03-24T08:25:46.205Z,14.70
2023-03-24T08:26:45.954Z,14.70
2023-03-24T08:27:45.934Z,14.67
2023-03-24T08:28:45.924Z,14.64
2023-03-24T08:29:45.924Z,14.63
2023-03-24T08:30:46.056Z,14.64
2023-03-24T08:31:45.897Z,14.63
2023-03-24T08:32:45.911Z,14.59
2023-03-24T08:33:45.869Z,14.56
2023-03-24T08:34:45.885Z,14.55
2023-03-24T08:35:46.031Z,14.53
2023-03-24T08:36:45.831Z,14.53
2023-03-24T08:37:45.828Z,14.56
2023-03-24T08:38:45.810Z,14.59
2023-03-24T08:39:45.804Z,14.59
2023-03-24T08:40:45.789Z,14.58
2023-03-24T08:41:45.778Z,14.61
2023-03-24T08:42:45.780Z,14.64
2023-03-24T08:43:45.756Z,14.64
2023-03-24T08:44:45.754Z,14.59
2023-03-24T08:45:45.826Z,14.61
2023-03-24T08:46:45.748Z,14.59
2023-03-24T08:47:45.787Z,14.56
2023-03-24T08:48:45.697Z,14.55
2023-03-24T08:49:45.686Z,14.53
2023-03-24T08:50:45.694Z,14.55
2023-03-24T08:51:45.659Z,14.55
2023-03-24T08:52:45.650Z,14.55
2023-03-24T08:53:45.642Z,14.58
2023-03-24T08:54:45.629Z,14.61
2023-03-24T08:55:45.817Z,14.64
2023-03-24T08:56:45.619Z,14.64
2023-03-24T08:57:45.620Z,14.66
2023-03-24T08:58:45.587Z,14.70
2023-03-24T08:59:45.568Z,14.71
2023-03-24T09:00:45.611Z,14.74
2023-03-24T09:01:45.608Z,14.77
2023-03-24T09:02:45.595Z,14.77
2023-03-24T09:03:45.553Z,14.78
2023-03-24T09:04:45.584Z,14.78
2023-03-24T09:05:45.494Z,14.78
2023-03-24T09:06:45.508Z,14.81
2023-03-24T09:07:45.473Z,14.82
2023-03-24T09:08:45.469Z,14.86
2023-03-24T09:09:45.449Z,14.85
2023-03-24T09:10:45.441Z,14.84
2023-03-24T09:11:45.424Z,14.82
2023-03-24T09:12:45.415Z,14.84
2023-03-24T09:13:45.407Z,14.85
2023-03-24T09:14:45.391Z,14.84
2023-03-24T09:15:45.512Z,14.85
2023-03-24T09:16:45.396Z,14.85
2023-03-24T09:17:45.379Z,14.85
2023-03-24T09:18:45.354Z,14.85
2023-03-24T09:19:45.334Z,14.84
2023-03-24T09:20:45.334Z,14.85
2023-03-24T09:21:45.311Z,14.86
2023-03-24T09:22:45.334Z,14.85
2023-03-24T09:23:45.303Z,14.84
2023-03-24T09:24:45.280Z,14.86
2023-03-24T09:25:45.293Z,14.86
2023-03-24T09:26:45.251Z,14.88
2023-03-24T09:27:45.239Z,14.89
2023-03-24T09:28:45.240Z,14.89
2023-03-24T09:29:45.216Z,14.92
2023-03-24T09:30:45.220Z,14.92
2023-03-24T09:31:45.239Z,14.94
2023-03-24T09:32:45.249Z,14.94
2023-03-24T09:33:45.174Z,14.95
2023-03-24T09:34:45.181Z,14.95
2023-03-24T09:35:45.196Z,14.96
2023-03-24T09:36:45.168Z,14.96
2023-03-24T09:37:45.131Z,15.00
2023-03-24T09:38:45.167Z,15.03
2023-03-24T09:39:45.102Z,15.09
2023-03-24T09:40:45.183Z,15.26
2023-03-24T09:41:45.077Z,15.58
2023-03-24T09:42:46.646Z,15.77
2023-03-24T09:43:45.108Z,15.88
2023-03-24T09:44:45.047Z,16.00
2023-03-24T09:45:45.227Z,16.14
2023-03-24T09:46:45.136Z,16.32
2023-03-24T09:47:45.067Z,16.39
2023-03-24T09:48:45.001Z,16.53
2023-03-24T09:49:44.992Z,16.73
2023-03-24T09:50:44.975Z,16.86
2023-03-24T09:51:44.971Z,16.90
2023-03-24T09:52:44.952Z,16.87
2023-03-24T09:53:44.946Z,16.94
2023-03-24T09:54:44.972Z,17.01
2023-03-24T09:55:44.937Z,17.12
2023-03-24T09:56:44.932Z,17.10
2023-03-24T09:57:44.913Z,17.04
2023-03-24T09:58:44.897Z,16.94
2023-03-24T09:59:44.877Z,16.90
2023-03-24T10:00:44.927Z,16.92
2023-03-24T10:01:44.858Z,17.02
2023-03-24T10:02:44.888Z,17.20
2023-03-24T10:03:44.936Z,17.54
2023-03-24T10:04:44.836Z,17.70
2023-03-24T10:05:44.812Z,17.82
2023-03-24T10:06:44.815Z,17.90
2023-03-24T10:07:44.792Z,17.78
2023-03-24T10:08:44.784Z,17.32
2023-03-24T10:09:44.774Z,17.14
2023-03-24T10:10:44.797Z,17.06
2023-03-24T10:11:44.746Z,17.09
2023-03-24T10:12:44.734Z,17.27
2023-03-24T10:13:44.738Z,17.43
2023-03-24T10:14:44.784Z,17.56
2023-03-24T10:15:44.701Z,17.46
2023-03-24T10:16:44.728Z,17.37
2023-03-24T10:17:44.752Z,17.37
2023-03-24T10:18:44.745Z,17.46
2023-03-24T10:19:44.665Z,17.53
2023-03-24T10:20:44.643Z,17.54
2023-03-24T10:21:44.636Z,17.54
2023-03-24T10:22:44.623Z,17.62
2023-03-24T10:23:44.611Z,17.70
2023-03-24T10:24:44.617Z,17.75
2023-03-24T10:25:44.592Z,17.78
2023-03-24T10:26:44.661Z,17.82
2023-03-24T10:27:44.573Z,17.83
2023-03-24T10:28:44.554Z,17.86
2023-03-24T10:29:44.571Z,17.86
2023-03-24T10:30:45.752Z,17.87
2023-03-24T10:31:44.559Z,17.83
2023-03-24T10:32:44.566Z,17.80
2023-03-24T10:33:44.506Z,17.80
2023-03-24T10:34:44.489Z,17.85
2023-03-24T10:35:44.491Z,18.00
2023-03-24T10:36:44.471Z,18.25
2023-03-24T10:37:44.463Z,18.67
2023-03-24T10:38:44.455Z,19.40
2023-03-24T10:39:45.302Z,20.11
2023-03-24T10:40:44.422Z,20.39
2023-03-24T10:41:44.412Z,20.57
2023-03-24T10:42:44.523Z,20.63
2023-03-24T10:43:44.390Z,20.70
2023-03-24T10:44:44.375Z,20.84
2023-03-24T10:45:44.420Z,20.97
2023-03-24T10:46:44.361Z,21.18
2023-03-24T10:47:44.376Z,21.30
2023-03-24T10:48:44.394Z,21.35
2023-03-24T10:49:44.321Z,21.28
2023-03-24T10:50:44.315Z,20.94
2023-03-24T10:51:44.299Z,20.81
2023-03-24T10:52:44.287Z,20.64
2023-03-24T10:53:44.278Z,20.54
2023-03-24T10:54:44.274Z,20.02
2023-03-24T10:55:44.252Z,19.49
2023-03-24T10:56:44.289Z,19.37
2023-03-24T10:57:44.253Z,19.34
2023-03-24T10:58:44.252Z,19.33
2023-03-24T10:59:44.230Z,19.34
2023-03-24T11:00:44.200Z,19.34
2023-03-24T11:01:44.208Z,19.34
2023-03-24T11:02:44.290Z,19.34
2023-03-24T11:03:44.216Z,19.33
2023-03-24T11:04:44.155Z,19.26
2023-03-24T11:05:44.145Z,19.22
2023-03-24T11:06:44.127Z,19.19
2023-03-24T11:07:44.115Z,19.18
2023-03-24T11:08:44.106Z,19.14
2023-03-24T11:09:44.098Z,19.14
2023-03-24T11:10:44.083Z,19.14
2023-03-24T11:11:44.076Z,19.16
2023-03-24T11:12:44.064Z,19.16
2023-03-24T11:13:44.049Z,19.04
2023-03-24T11:14:44.064Z,18.97
2023-03-24T11:15:44.027Z,18.98
2023-03-24T11:16:44.068Z,18.85
2023-03-24T11:17:44.030Z,18.85
2023-03-24T11:18:43.990Z,18.96
2023-03-24T11:19:43.984Z,19.08
2023-03-24T11:20:43.983Z,19.23
2023-03-24T11:21:43.970Z,19.19
2023-03-24T11:22:43.985Z,19.19
2023-03-24T11:23:43.940Z,19.22
2023-03-24T11:24:43.927Z,19.23
2023-03-24T11:25:43.912Z,19.52
2023-03-24T11:26:43.928Z,19.79
2023-03-24T11:27:43.926Z,20.15
2023-03-24T11:28:43.877Z,20.29
2023-03-24T11:29:43.873Z,20.12
2023-03-24T11:30:45.741Z,19.96
2023-03-24T11:31:43.842Z,19.84
2023-03-24T11:32:43.886Z,19.84
2023-03-24T11:33:43.828Z,19.89
2023-03-24T11:34:43.810Z,19.70
2023-03-24T11:35:44.963Z,19.55
2023-03-24T11:36:46.853Z,19.66
2023-03-24T11:37:43.778Z,19.73
2023-03-24T11:38:43.769Z,19.79
2023-03-24T11:39:43.759Z,19.53
2023-03-24T11:40:43.747Z,19.19
2023-03-24T11:41:43.749Z,19.51
2023-03-24T11:42:45.872Z,19.55
2023-03-24T11:43:43.712Z,19.56
2023-03-24T11:44:43.713Z,19.49
2023-03-24T11:45:43.701Z,19.71
2023-03-24T11:46:43.769Z,19.66
2023-03-24T11:47:43.708Z,19.63
2023-03-24T11:48:43.671Z,19.84
2023-03-24T11:49:43.651Z,19.93
2023-03-24T11:50:43.650Z,19.77
2023-03-24T11:51:43.624Z,19.63
2023-03-24T11:52:43.621Z,19.66
2023-03-24T11:53:43.616Z,19.70
2023-03-24T11:54:43.592Z,19.62
2023-03-24T11:55:43.580Z,19.37
2023-03-24T11:56:43.654Z,19.19
2023-03-24T11:57:43.566Z,19.18
2023-03-24T11:58:43.549Z,19.30
2023-03-24T11:59:43.544Z,19.31
2023-03-24T12:00:43.538Z,19.31
2023-03-24T12:01:43.513Z,19.38
2023-03-24T12:02:43.582Z,19.40
2023-03-24T12:03:43.607Z,19.34
2023-03-24T12:04:43.478Z,19.33
2023-03-24T12:05:43.486Z,19.30
2023-03-24T12:06:43.467Z,19.26
2023-03-24T12:07:43.450Z,19.31
2023-03-24T12:08:43.448Z,19.30
2023-03-24T12:09:43.440Z,19.26
2023-03-24T12:10:43.413Z,19.25
2023-03-24T12:11:43.408Z,19.31
2023-03-24T12:12:43.392Z,19.37
2023-03-24T12:13:43.381Z,19.49
2023-03-24T12:14:43.370Z,19.52
2023-03-24T12:15:43.413Z,19.52
2023-03-24T12:16:43.397Z,19.43
2023-03-24T12:17:43.360Z,19.30
2023-03-24T12:18:43.352Z,19.29
2023-03-24T12:19:43.316Z,19.18
2023-03-24T12:20:43.314Z,19.19
2023-03-24T12:21:43.296Z,19.12
2023-03-24T12:22:43.282Z,19.06
2023-03-24T12:23:43.285Z,19.04
2023-03-24T12:24:43.265Z,19.08
2023-03-24T12:25:43.253Z,19.08
2023-03-24T12:26:43.244Z,19.04
2023-03-24T12:27:43.232Z,19.04
2023-03-24T12:28:43.222Z,19.07
2023-03-24T12:29:43.216Z,19.03
2023-03-24T12:30:43.192Z,18.97
2023-03-24T12:31:43.234Z,18.89
2023-03-24T12:32:43.294Z,18.83
2023-03-24T12:33:43.161Z,18.83
2023-03-24T12:34:43.175Z,18.83
2023-03-24T12:35:43.205Z,18.75
2023-03-24T12:36:43.128Z,18.68
2023-03-24T12:37:43.115Z,18.67
2023-03-24T12:38:43.112Z,18.67
2023-03-24T12:39:43.112Z,18.61
2023-03-24T12:40:43.081Z,18.58
2023-03-24T12:41:43.079Z,18.57
2023-03-24T12:42:43.063Z,18.58
2023-03-24T12:43:43.048Z,18.52
2023-03-24T12:44:43.037Z,18.46
2023-03-24T12:45:43.066Z,18.48
2023-03-24T12:47:45.038Z,18.30
2023-03-24T12:48:42.990Z,18.26
2023-03-24T12:49:42.981Z,18.30
2023-03-24T12:50:42.992Z,18.38
2023-03-24T12:51:42.957Z,18.41
2023-03-24T12:52:43.244Z,18.36
2023-03-24T12:53:42.939Z,18.33
2023-03-24T12:54:42.926Z,18.42
2023-03-24T12:55:42.922Z,18.41